createdAt,value
2017-11-06T00:01:53.360Z,90.87
2017-11-06T00:04:21.277Z,91.08
2017-11-06T00:06:49.206Z,91.14
2017-11-06T00:09:17.510Z,91.02
2017-11-06T00:11:45.424Z,91.19
2017-11-06T00:14:13.352Z,90.76
2017-11-06T00:16:41.253Z,91.16
2017-11-06T00:19:09.236Z,90.76
2017-11-06T00:21:37.156Z,90.80
2017-11-06T00:24:05.070Z,90.69
2017-11-06T00:26:32.994Z,90.75
2017-11-06T00:29:00.886Z,90.71
2017-11-06T00:31:28.874Z,90.41
2017-11-06T00:33:56.793Z,90.45
2017-11-06T00:36:24.713Z,90.56
2017-11-06T00:38:52.681Z,90.68
2017-11-06T00:41:20.598Z,90.48
2017-11-06T00:43:48.586Z,90.42
2017-11-06T00:46:16.544Z,90.46
2017-11-06T00:48:44.440Z,90.48
2017-11-06T00:51:12.357Z,90.81
2017-11-06T00:53:41.536Z,90.77
2017-11-06T00:56:09.852Z,90.33
2017-11-06T00:58:37.745Z,90.27
2017-11-06T01:01:05.653Z,90.27
2017-11-06T01:03:34.017Z,90.07
2017-11-06T01:06:02.072Z,90.24
2017-11-06T01:08:30.606Z,90.38
2017-11-06T01:10:58.508Z,89.46
2017-11-06T01:13:26.427Z,90.00
2017-11-06T01:15:54.775Z,89.59
2017-11-06T01:18:22.668Z,89.61
2017-11-06T01:20:50.998Z,89.55
2017-11-06T01:23:18.938Z,89.36
2017-11-06T01:25:46.860Z,89.32
2017-11-06T01:28:14.770Z,89.74
2017-11-06T01:30:42.678Z,89.56
2017-11-06T01:33:10.609Z,89.68
2017-11-06T01:35:39.168Z,89.55
2017-11-06T01:38:07.469Z,89.60
2017-11-06T01:40:35.374Z,89.81
2017-11-06T01:43:03.281Z,89.52
2017-11-06T01:45:31.617Z,89.70
2017-11-06T01:47:59.525Z,89.89
2017-11-06T01:50:27.827Z,89.86
2017-11-06T01:52:55.800Z,89.54
2017-11-06T01:55:23.700Z,89.40
2017-11-06T01:57:51.604Z,89.41
2017-11-06T02:00:19.962Z,89.64
2017-11-06T02:02:47.899Z,89.42
2017-11-06T02:05:15.849Z,89.16
2017-11-06T02:07:43.776Z,89.22
2017-11-06T02:10:11.790Z,89.21
2017-11-06T02:12:39.693Z,88.98
2017-11-06T02:15:07.630Z,88.91
2017-11-06T02:17:35.552Z,88.86
2017-11-06T02:20:03.564Z,88.90
2017-11-06T02:22:31.645Z,88.56
2017-11-06T02:24:59.546Z,88.84
2017-11-06T02:27:27.466Z,88.50
2017-11-06T02:29:55.480Z,88.78
2017-11-06T02:32:23.382Z,88.41
2017-11-06T02:34:51.729Z,88.54
2017-11-06T02:37:19.631Z,88.65
2017-11-06T02:39:47.945Z,88.50
2017-11-06T02:42:15.858Z,88.55
2017-11-06T02:44:43.804Z,88.38
2017-11-06T02:47:11.735Z,88.29
2017-11-06T02:49:39.664Z,88.36
2017-11-06T02:52:07.606Z,88.44
2017-11-06T02:54:35.512Z,88.51
2017-11-06T02:57:03.814Z,88.29
2017-11-06T02:59:31.725Z,88.22
2017-11-06T03:02:00.517Z,87.68
2017-11-06T03:04:28.433Z,88.23
2017-11-06T03:06:56.353Z,88.13
2017-11-06T03:09:24.252Z,88.22
2017-11-06T03:11:52.574Z,88.04
2017-11-06T03:14:20.482Z,87.80
2017-11-06T03:16:48.583Z,88.04
2017-11-06T03:19:16.496Z,88.09
2017-11-06T03:21:44.433Z,87.71
2017-11-06T03:24:12.338Z,87.60
2017-11-06T03:26:40.309Z,87.84
2017-11-06T03:29:08.205Z,88.04
2017-11-06T03:31:36.504Z,87.62
2017-11-06T03:34:04.478Z,87.26
2017-11-06T03:36:32.498Z,87.22
2017-11-06T03:39:00.404Z,87.43
2017-11-06T03:41:28.339Z,87.43
2017-11-06T03:43:56.253Z,87.53
2017-11-06T03:46:24.167Z,87.26
2017-11-06T03:48:52.145Z,87.24
2017-11-06T03:51:20.061Z,87.37
2017-11-06T03:53:47.975Z,87.63
2017-11-06T03:56:15.955Z,87.85
2017-11-06T03:58:44.257Z,88.13
2017-11-06T04:01:12.169Z,87.52
2017-11-06T04:03:40.105Z,87.67
2017-11-06T04:06:08.132Z,87.76
2017-11-06T04:08:36.035Z,87.83
2017-11-06T04:11:03.969Z,87.78
2017-11-06T04:13:31.935Z,87.77
2017-11-06T04:15:59.904Z,87.79
2017-11-06T04:18:27.864Z,87.68
2017-11-06T04:20:55.824Z,87.84
2017-11-06T04:23:25.413Z,87.62
2017-11-06T04:25:53.357Z,87.74
2017-11-06T04:28:21.281Z,87.74
2017-11-06T04:30:49.250Z,87.63
2017-11-06T04:33:17.209Z,87.46
2017-11-06T04:35:45.155Z,88.00
2017-11-06T04:38:13.146Z,87.58
2017-11-06T04:40:41.085Z,87.38
2017-11-06T04:43:08.998Z,87.29
2017-11-06T04:45:36.905Z,87.25
2017-11-06T04:48:04.831Z,87.48
2017-11-06T04:50:32.794Z,87.69
2017-11-06T04:53:00.709Z,87.37
2017-11-06T04:55:28.637Z,87.29
2017-11-06T04:57:56.541Z,87.15
2017-11-06T05:00:24.446Z,87.56
2017-11-06T05:02:52.379Z,87.93
2017-11-06T05:05:20.301Z,87.54
2017-11-06T05:07:48.205Z,87.63
2017-11-06T05:10:16.561Z,87.56
2017-11-06T05:12:44.472Z,87.44
2017-11-06T05:15:12.365Z,87.62
2017-11-06T05:17:40.277Z,87.88
2017-11-06T05:20:08.586Z,87.39
2017-11-06T05:22:36.497Z,87.96
2017-11-06T05:25:04.415Z,87.96
2017-11-06T05:27:32.335Z,87.76
2017-11-06T05:30:00.246Z,87.95
2017-11-06T05:32:28.164Z,88.15
2017-11-06T05:34:56.058Z,88.18
2017-11-06T05:37:24.361Z,88.07
2017-11-06T05:39:52.273Z,88.06
2017-11-06T05:42:20.177Z,88.24
2017-11-06T05:44:48.470Z,88.79
2017-11-06T05:47:16.369Z,88.82
2017-11-06T05:49:44.373Z,88.37
2017-11-06T05:52:12.319Z,88.11
2017-11-06T05:54:40.294Z,88.13
2017-11-06T05:57:08.205Z,88.15
2017-11-06T05:59:36.104Z,89.14
2017-11-06T06:02:04.016Z,88.43
2017-11-06T06:04:31.912Z,88.34
2017-11-06T06:06:59.830Z,88.08
2017-11-06T06:09:27.749Z,88.42
2017-11-06T06:11:55.668Z,88.68
2017-11-06T06:14:23.587Z,89.07
2017-11-06T06:16:51.505Z,88.61
2017-11-06T06:19:19.423Z,89.02
2017-11-06T06:21:47.340Z,89.53
2017-11-06T06:24:15.312Z,90.18
2017-11-06T06:26:43.220Z,90.08
2017-11-06T06:29:11.173Z,90.12
2017-11-06T06:31:39.480Z,89.50
2017-11-06T06:34:07.387Z,89.40
2017-11-06T06:36:35.312Z,89.95
2017-11-06T06:39:03.220Z,89.86
2017-11-06T06:41:31.162Z,89.32
2017-11-06T06:43:59.173Z,89.33
2017-11-06T06:46:27.083Z,89.08
2017-11-06T06:48:54.984Z,88.58
2017-11-06T06:51:22.979Z,88.71
2017-11-06T06:53:50.924Z,88.40
2017-11-06T06:56:18.913Z,87.89
2017-11-06T06:58:46.820Z,87.51
2017-11-06T07:01:14.729Z,87.79
2017-11-06T07:03:42.647Z,87.55
2017-11-06T07:06:10.953Z,87.16
2017-11-06T07:08:38.865Z,87.24
2017-11-06T07:11:06.823Z,87.08
2017-11-06T07:13:34.742Z,87.16
2017-11-06T07:16:02.658Z,86.95
2017-11-06T07:18:30.624Z,86.82
2017-11-06T07:20:58.533Z,86.77
2017-11-06T07:23:26.981Z,86.47
2017-11-06T07:25:54.957Z,85.80
2017-11-06T07:28:22.955Z,85.68
2017-11-06T07:30:50.882Z,85.09
2017-11-06T07:33:18.797Z,85.12
2017-11-06T07:35:46.712Z,85.36
2017-11-06T07:38:14.727Z,84.84
2017-11-06T07:40:42.638Z,84.46
2017-11-06T07:43:10.637Z,84.22
2017-11-06T07:45:38.552Z,85.00
2017-11-06T07:48:06.468Z,84.20
2017-11-06T07:50:34.437Z,83.71
2017-11-06T07:53:02.349Z,83.28
2017-11-06T07:55:30.268Z,82.71
2017-11-06T07:57:58.233Z,82.13
2017-11-06T08:00:26.204Z,81.52
2017-11-06T08:02:54.114Z,80.45
2017-11-06T08:05:22.038Z,79.25
2017-11-06T08:07:49.942Z,79.26
2017-11-06T08:10:18.393Z,78.67
2017-11-06T08:12:46.305Z,78.70
2017-11-06T08:15:14.228Z,78.38
2017-11-06T08:17:42.132Z,78.87
2017-11-06T08:20:10.061Z,78.20
2017-11-06T08:22:37.981Z,78.06
2017-11-06T08:25:05.912Z,78.12
2017-11-06T08:27:33.840Z,77.94
2017-11-06T08:30:01.750Z,77.85
2017-11-06T08:32:29.667Z,78.12
2017-11-06T08:34:57.568Z,78.00
2017-11-06T08:37:25.513Z,77.82
2017-11-06T08:39:53.421Z,78.75
2017-11-06T08:42:21.364Z,78.50
2017-11-06T08:44:49.437Z,79.18
2017-11-06T08:47:17.360Z,79.83
2017-11-06T08:49:45.292Z,79.37
2017-11-06T08:52:13.244Z,79.26
2017-11-06T08:54:41.153Z,78.88
2017-11-06T08:57:10.053Z,78.27
2017-11-06T08:59:37.956Z,77.08
2017-11-06T09:02:05.957Z,76.44
2017-11-06T09:04:33.860Z,76.31
2017-11-06T09:07:01.781Z,75.91
2017-11-06T09:09:29.744Z,75.72
2017-11-06T09:11:57.655Z,75.95
2017-11-06T09:14:25.582Z,76.16
2017-11-06T09:16:53.489Z,75.88
2017-11-06T09:19:21.833Z,75.95
2017-11-06T09:21:49.802Z,75.87
2017-11-06T09:24:17.708Z,75.62
2017-11-06T09:26:45.620Z,75.17
2017-11-06T09:29:13.553Z,74.65
2017-11-06T09:31:41.463Z,74.35
2017-11-06T09:34:09.379Z,73.69
2017-11-06T09:36:37.336Z,72.69
2017-11-06T09:39:05.685Z,72.07
2017-11-06T09:41:33.596Z,71.71
2017-11-06T09:44:01.522Z,72.01
2017-11-06T09:46:29.436Z,70.32
2017-11-06T09:48:57.351Z,69.80
2017-11-06T09:51:25.277Z,69.28
2017-11-06T09:53:53.205Z,69.16
2017-11-06T09:56:21.119Z,69.08
2017-11-06T09:58:49.129Z,68.31
2017-11-06T10:01:17.050Z,68.27
2017-11-06T10:03:44.953Z,68.37
2017-11-06T10:06:12.874Z,68.70
2017-11-06T10:08:40.796Z,70.37
2017-11-06T10:11:08.727Z,70.45
2017-11-06T10:13:36.736Z,70.29
2017-11-06T10:16:04.656Z,70.85
2017-11-06T10:18:32.592Z,71.50
2017-11-06T10:21:00.509Z,71.87
2017-11-06T10:23:28.523Z,72.82
2017-11-06T10:25:56.476Z,73.29
2017-11-06T10:28:24.447Z,72.48
2017-11-06T10:30:52.414Z,70.05
2017-11-06T10:35:47.544Z,62.82
2017-11-06T10:38:15.447Z,60.58
2017-11-06T10:40:43.358Z,58.55
2017-11-06T10:43:11.266Z,56.69
2017-11-06T10:45:39.577Z,55.92
2017-11-06T10:48:07.525Z,55.26
2017-11-06T10:50:35.832Z,53.77
2017-11-06T10:53:03.844Z,54.96
2017-11-06T10:55:31.752Z,53.44
2017-11-06T10:57:59.779Z,52.50
2017-11-06T11:00:27.696Z,54.89
2017-11-06T11:02:55.726Z,55.89
2017-11-06T11:05:23.648Z,58.91
2017-11-06T11:07:51.556Z,60.84
2017-11-06T11:10:19.470Z,64.06
2017-11-06T11:12:47.380Z,63.68
2017-11-06T11:15:15.304Z,66.62
2017-11-06T11:17:43.231Z,67.62
2017-11-06T11:20:11.156Z,68.67
2017-11-06T11:22:39.063Z,68.41
2017-11-06T11:25:07.041Z,68.65
2017-11-06T11:27:34.964Z,69.89
2017-11-06T11:30:03.383Z,69.88
2017-11-06T11:32:31.300Z,70.58
2017-11-06T11:34:59.300Z,70.21
2017-11-06T11:37:27.271Z,70.79
2017-11-06T11:39:55.342Z,70.74
2017-11-06T11:42:23.307Z,70.65
2017-11-06T11:44:51.270Z,70.88
2017-11-06T11:47:19.184Z,70.93
2017-11-06T11:49:47.528Z,71.26
2017-11-06T11:52:15.511Z,71.62
2017-11-06T11:54:43.412Z,71.60
2017-11-06T11:57:11.332Z,72.18
2017-11-06T11:59:39.236Z,72.13
2017-11-06T12:02:07.548Z,72.39
2017-11-06T12:04:35.648Z,71.80
2017-11-06T12:07:03.622Z,71.56
2017-11-06T12:09:31.544Z,70.90
2017-11-06T12:11:59.461Z,71.00
2017-11-06T12:14:27.359Z,71.60
2017-11-06T12:16:55.665Z,70.88
2017-11-06T12:19:23.768Z,71.29
2017-11-06T12:21:51.684Z,71.73
2017-11-06T12:24:19.611Z,71.56
2017-11-06T12:26:47.521Z,71.67
2017-11-06T12:29:15.440Z,72.13
2017-11-06T12:31:43.412Z,71.35
2017-11-06T12:34:11.341Z,71.72
2017-11-06T12:36:39.343Z,71.96
2017-11-06T12:39:07.317Z,70.95
2017-11-06T12:41:35.299Z,70.53
2017-11-06T12:44:03.318Z,69.84
2017-11-06T12:46:31.324Z,69.92
2017-11-06T12:48:59.227Z,70.00
2017-11-06T12:51:27.573Z,69.68
2017-11-06T12:53:55.480Z,70.03
2017-11-06T12:56:23.805Z,69.00
2017-11-06T12:58:51.791Z,69.09
2017-11-06T13:01:19.706Z,68.70
2017-11-06T13:03:47.617Z,68.99
2017-11-06T13:06:15.590Z,69.42
2017-11-06T13:08:43.499Z,68.71
2017-11-06T13:11:11.820Z,69.11
2017-11-06T13:13:39.804Z,68.76
2017-11-06T13:16:07.732Z,68.53
2017-11-06T13:18:35.642Z,69.62
2017-11-06T13:21:03.556Z,68.99
2017-11-06T13:23:31.455Z,69.35
2017-11-06T13:25:59.444Z,68.56
2017-11-06T13:28:27.418Z,68.55
2017-11-06T13:30:55.428Z,69.02
2017-11-06T13:33:23.339Z,68.81
2017-11-06T13:35:51.320Z,68.64
2017-11-06T13:38:19.229Z,68.76
2017-11-06T13:40:47.537Z,68.35
2017-11-06T13:43:15.544Z,67.84
2017-11-06T13:45:43.464Z,67.82
2017-11-06T13:48:11.475Z,67.36
2017-11-06T13:50:39.488Z,66.91
2017-11-06T13:53:07.791Z,67.34
2017-11-06T13:55:35.716Z,68.13
2017-11-06T13:58:04.014Z,68.38
2017-11-06T14:00:31.922Z,69.25
2017-11-06T14:02:59.826Z,68.73
2017-11-06T14:05:28.133Z,68.70
2017-11-06T14:07:56.039Z,68.80
2017-11-06T14:10:23.960Z,68.56
2017-11-06T14:12:51.864Z,68.41
2017-11-06T14:15:19.814Z,69.33
2017-11-06T14:17:47.724Z,69.18
2017-11-06T14:20:15.629Z,69.36
2017-11-06T14:22:44.079Z,68.81
2017-11-06T14:25:12.038Z,68.64
2017-11-06T14:27:39.935Z,69.35
2017-11-06T14:30:08.253Z,70.54
2017-11-06T14:32:36.244Z,70.00
2017-11-06T14:35:04.155Z,70.41
2017-11-06T14:37:32.161Z,70.28
2017-11-06T14:40:00.154Z,70.38
2017-11-06T14:42:28.132Z,71.28
2017-11-06T14:44:56.056Z,70.75
2017-11-06T14:47:23.977Z,71.50
2017-11-06T14:49:51.904Z,71.67
2017-11-06T14:52:19.828Z,72.01
2017-11-06T14:54:48.130Z,71.90
2017-11-06T14:57:16.048Z,72.00
2017-11-06T14:59:43.947Z,73.01
2017-11-06T15:02:11.851Z,73.33
2017-11-06T15:04:39.857Z,73.38
2017-11-06T15:07:07.825Z,72.87
2017-11-06T15:09:35.726Z,73.25
2017-11-06T15:12:04.024Z,74.18
2017-11-06T15:14:31.920Z,74.21
2017-11-06T15:16:59.835Z,75.03
2017-11-06T15:19:27.864Z,75.13
2017-11-06T15:21:55.794Z,75.42
2017-11-06T15:24:23.699Z,76.14
2017-11-06T15:26:51.605Z,76.43
2017-11-06T15:29:20.076Z,76.52
2017-11-06T15:31:48.435Z,76.66
2017-11-06T15:34:16.334Z,77.37
2017-11-06T15:36:44.693Z,77.64
2017-11-06T15:39:13.373Z,78.38
2017-11-06T15:41:41.267Z,78.74
2017-11-06T15:44:09.568Z,78.75
2017-11-06T15:46:37.572Z,78.89
2017-11-06T15:49:05.477Z,79.73
2017-11-06T15:51:33.790Z,79.74
2017-11-06T15:54:01.796Z,79.84
2017-11-06T15:56:29.704Z,80.37
2017-11-06T15:58:57.602Z,80.15
2017-11-06T16:01:25.591Z,80.30
2017-11-06T16:03:54.402Z,80.85
2017-11-06T16:06:22.632Z,81.36
2017-11-06T16:08:50.837Z,82.19
2017-11-06T16:11:20.446Z,81.98
2017-11-06T16:13:49.800Z,82.10
2017-11-06T16:16:18.128Z,81.70
2017-11-06T16:18:46.762Z,82.15
2017-11-06T16:21:15.058Z,82.39
2017-11-06T16:23:44.263Z,82.40
2017-11-06T16:26:12.411Z,82.02
2017-11-06T16:28:40.584Z,82.28
2017-11-06T16:31:08.756Z,82.50
2017-11-06T16:33:37.034Z,82.36
2017-11-06T16:36:05.001Z,82.94
2017-11-06T16:38:32.939Z,83.54
2017-11-06T16:41:01.374Z,83.90
2017-11-06T16:43:29.385Z,83.97
2017-11-06T16:45:58.006Z,84.45
2017-11-06T16:48:26.027Z,84.17
2017-11-06T16:50:54.067Z,84.53
2017-11-06T16:53:22.117Z,84.27
2017-11-06T16:55:50.035Z,84.26
2017-11-06T16:58:18.033Z,84.32
2017-11-06T17:00:46.375Z,84.47
2017-11-06T17:03:14.336Z,84.39
2017-11-06T17:05:42.361Z,85.03
2017-11-06T17:08:10.341Z,85.10
2017-11-06T17:10:38.618Z,84.87
2017-11-06T17:13:06.760Z,85.18
2017-11-06T17:15:34.716Z,85.47
2017-11-06T17:18:02.803Z,85.39
2017-11-06T17:20:31.313Z,85.46
2017-11-06T17:22:59.309Z,86.21
2017-11-06T17:25:27.421Z,85.81
2017-11-06T17:27:55.542Z,86.03
2017-11-06T17:30:23.804Z,86.02
2017-11-06T17:32:52.001Z,86.14
2017-11-06T17:35:20.033Z,86.08
2017-11-06T17:37:48.364Z,85.62
2017-11-06T17:40:16.276Z,86.42
2017-11-06T17:42:44.216Z,86.75
2017-11-06T17:45:12.124Z,87.01
2017-11-06T17:47:40.035Z,86.79
2017-11-06T17:50:07.971Z,87.09
2017-11-06T17:52:35.869Z,87.03
2017-11-06T17:55:03.768Z,87.76
2017-11-06T17:57:32.064Z,88.49
2017-11-06T17:59:59.963Z,88.96
2017-11-06T18:02:27.967Z,89.29
2017-11-06T18:04:56.340Z,89.42
2017-11-06T18:07:24.264Z,89.70
2017-11-06T18:09:52.165Z,89.68
2017-11-06T18:12:20.076Z,89.21
2017-11-06T18:14:48.373Z,89.07
2017-11-06T18:17:16.288Z,89.37
2017-11-06T18:19:44.189Z,89.84
2017-11-06T18:22:12.488Z,89.93
2017-11-06T18:24:40.510Z,90.08
2017-11-06T18:27:08.428Z,90.24
2017-11-06T18:29:36.340Z,90.49
2017-11-06T18:32:04.241Z,90.65
2017-11-06T18:34:32.154Z,90.62
2017-11-06T18:37:00.338Z,90.55
2017-11-06T18:39:28.505Z,91.07
2017-11-06T18:41:56.681Z,91.50
2017-11-06T18:44:24.785Z,91.15
2017-11-06T18:46:53.122Z,90.93
2017-11-06T18:49:21.375Z,91.08
2017-11-06T18:51:49.650Z,91.53
2017-11-06T18:54:17.953Z,92.04
2017-11-06T18:56:46.464Z,91.98
2017-11-06T18:59:14.581Z,92.41
2017-11-06T19:01:42.607Z,92.23
2017-11-06T19:04:10.511Z,92.24
2017-11-06T19:06:38.482Z,92.60
2017-11-06T19:09:06.517Z,93.04
2017-11-06T19:11:34.428Z,92.80
2017-11-06T19:14:02.322Z,93.05
2017-11-06T19:16:30.262Z,93.78
2017-11-06T19:18:58.183Z,94.34
2017-11-06T19:21:26.147Z,94.27
2017-11-06T19:23:54.074Z,94.25
2017-11-06T19:26:21.991Z,94.04
2017-11-06T19:28:49.903Z,93.87
2017-11-06T19:31:17.846Z,94.17
2017-11-06T19:33:46.174Z,93.86
2017-11-06T19:36:14.108Z,93.82
2017-11-06T19:38:42.038Z,93.87
2017-11-06T19:41:09.944Z,94.51
2017-11-06T19:43:37.885Z,94.52
2017-11-06T19:46:05.804Z,93.94
2017-11-06T19:48:33.715Z,94.00
2017-11-06T19:51:01.652Z,94.37
2017-11-06T19:53:29.643Z,93.98
2017-11-06T19:55:57.544Z,93.99
2017-11-06T19:58:25.453Z,94.09
2017-11-06T20:00:53.363Z,93.93
2017-11-06T20:03:21.701Z,94.10
2017-11-06T20:05:49.631Z,94.22
2017-11-06T20:08:17.540Z,95.11
2017-11-06T20:10:45.453Z,95.08
2017-11-06T20:13:13.744Z,94.74
2017-11-06T20:15:41.665Z,95.31
2017-11-06T20:18:09.576Z,95.35
2017-11-06T20:20:37.505Z,95.29
2017-11-06T20:23:05.505Z,95.36
2017-11-06T20:25:33.952Z,95.35
2017-11-06T20:28:01.860Z,95.16
2017-11-06T20:30:30.163Z,95.04
2017-11-06T20:32:58.125Z,95.19
2017-11-06T20:35:26.158Z,94.79
2017-11-06T20:37:54.511Z,94.75
2017-11-06T20:40:22.424Z,94.85
2017-11-06T20:42:50.363Z,94.79
2017-11-06T20:45:18.288Z,94.86
2017-11-06T20:47:46.214Z,95.01
2017-11-06T20:50:14.507Z,95.40
2017-11-06T20:52:42.429Z,95.31
2017-11-06T20:55:10.365Z,95.40
2017-11-06T20:57:38.264Z,96.00
2017-11-06T21:00:06.181Z,95.98
2017-11-06T21:02:34.095Z,96.29
2017-11-06T21:05:01.993Z,96.16
2017-11-06T21:07:30.316Z,96.01
2017-11-06T21:09:58.300Z,95.75
2017-11-06T21:12:26.243Z,95.84
2017-11-06T21:14:54.199Z,96.09
2017-11-06T21:17:22.164Z,96.22
2017-11-06T21:19:50.080Z,96.30
2017-11-06T21:22:18.057Z,95.92
2017-11-06T21:24:45.971Z,95.54
2017-11-06T21:27:13.955Z,96.44
2017-11-06T21:29:47.431Z,96.36
2017-11-06T21:32:15.834Z,96.17
2017-11-06T21:34:43.961Z,95.96
2017-11-06T21:37:12.621Z,96.32
2017-11-06T21:39:40.780Z,96.42
2017-11-06T21:42:09.025Z,96.65
2017-11-06T21:44:37.354Z,96.37
2017-11-06T21:47:05.899Z,96.67
2017-11-06T21:49:34.520Z,96.93
2017-11-06T21:52:02.970Z,96.90
2017-11-06T21:54:31.162Z,96.95
2017-11-06T21:56:59.358Z,96.96
2017-11-06T21:59:27.484Z,96.73
2017-11-06T22:01:55.456Z,96.86
2017-11-06T22:04:23.438Z,96.66
2017-11-06T22:06:51.512Z,96.62
2017-11-06T22:09:19.768Z,96.41
2017-11-06T22:11:47.952Z,96.41
2017-11-06T22:14:16.135Z,96.47
2017-11-06T22:16:44.292Z,96.21
2017-11-06T22:19:12.409Z,96.24
2017-11-06T22:21:40.716Z,96.01
2017-11-06T22:24:08.960Z,96.12
2017-11-06T22:26:37.253Z,96.23
2017-11-06T22:29:06.700Z,96.20
2017-11-06T22:31:34.823Z,96.08
2017-11-06T22:34:03.079Z,96.20
2017-11-06T22:36:32.055Z,95.90
2017-11-06T22:39:00.338Z,95.59
2017-11-06T22:41:28.697Z,95.41
2017-11-06T22:43:57.724Z,95.33
2017-11-06T22:46:26.033Z,95.17
2017-11-06T22:48:54.181Z,95.16
2017-11-06T22:51:22.357Z,95.24
2017-11-06T22:53:50.637Z,95.05
2017-11-06T22:56:19.381Z,94.96
2017-11-06T22:58:47.900Z,95.18
2017-11-06T23:01:19.251Z,95.00
2017-11-06T23:03:47.829Z,95.17
2017-11-06T23:06:16.450Z,94.92
2017-11-06T23:08:44.647Z,94.99
2017-11-06T23:11:13.028Z,94.88
2017-11-06T23:13:41.222Z,95.02
2017-11-06T23:16:09.559Z,95.47
2017-11-06T23:18:37.860Z,95.58
2017-11-06T23:21:06.035Z,95.30
2017-11-06T23:23:34.620Z,95.43
2017-11-06T23:26:02.799Z,95.41
2017-11-06T23:28:30.762Z,95.31
2017-11-06T23:30:58.773Z,95.31
2017-11-06T23:33:26.758Z,95.60
2017-11-06T23:35:54.678Z,95.60
2017-11-06T23:38:22.590Z,95.24
2017-11-06T23:40:50.552Z,94.88
2017-11-06T23:43:18.493Z,94.95
2017-11-06T23:45:46.441Z,95.17
2017-11-06T23:48:14.343Z,95.15
2017-11-06T23:50:42.255Z,95.09
2017-11-06T23:53:10.232Z,95.09
2017-11-06T23:55:38.169Z,95.15
2017-11-06T23:58:06.520Z,95.03
